Bridgeton, NC (28519)

5:53 AM EDT on July 07, 2015 (GMT -0400)
Fairfield Harbour | | Change Station
CLOSE
Current Station
Personal Weather Station
Location: New Bern, NC
Elevation: 20 ft
Nearby Weather Stations

Elev 20 ft 35.08 °N, 76.98 °W | Updated 13 seconds ago

Clear
Clear
74.8 °F
Feels Like 74 °F
N
0.0
Wind Variable Wind from SSE
Gusts 0.0 mph

Today
High -- | Low -- °F
--% Chance of Precip.
Yesterday
High -- | Low -- °F
Precip. -- in
6:00 AM 8:25 PM
Waning Gibbous, 66% visible
Pressure 30.12 in
Visibility 9.0 miles
Clouds Clear
Heat Index 74 °F
Dew Point 72 °F
Humidity 91%
Rainfall 0.00 in
Snow Depth Not available.
UV 0.0 out of 12
Pollen 3.40 out of 12
Air Quality Not available.
Flu Activity Not available.
METAR KEWN 070854Z AUTO 21003KT 9SM CLR 24/22 A3012 RMK AO2 SLP199 T02390222 51006 TSNO

More Conditions Fewer Conditions

Pressure 30.12 in
Visibility 9.0 miles
Clouds Clear
Heat Index 74 °F
Dew Point 72 °F
Humidity 91%
Rainfall 0.00 in
Snow Depth Not available.
UV 0.0 out of 12
Pollen 3.40 out of 12
Air Quality Not available.
Flu Activity Not available.
METAR KEWN 070854Z AUTO 21003KT 9SM CLR 24/22 A3012 RMK AO2 SLP199 T02390222 51006 TSNO

More Conditions Fewer Conditions

10-Day Weather Forecast

×

Almanac

Astronomy

Jul. 07, 2015 Rise Set
Actual Time
Civil Twilight
Nautical Twilight
Astronomical Twilight
Moon
Length of Visible Light
Length of Day
Tomorrow will be .
, % of the Moon is Illuminated

Today's Extremes

State Highs State Lows

Community

WunderPhotos

Upload Photos

1,835,758 photos uploaded!

WunderBlogs® & News

Nearby

Air Quality

  Air Quality AQ Index Pollutant
Not available.

Snow Depth

Station Depth Elevation

Earthquake Activity

City Distance Mag. Time & Date
Minimum magnitude displayed is 2.5.

Coastal Water Temperatures

Place Temperature

Stations

Nearby Weather Stations

Station Location Temp. Windchill Dew Point Humidity Wind Precip. Elev Updated Type